createdAt,value
2023-04-14T00:02:00.839Z,3.95
2023-04-14T00:04:27.766Z,3.90
2023-04-14T00:06:57.124Z,3.60
2023-04-14T00:09:23.940Z,4.68
2023-04-14T00:11:51.020Z,4.72
2023-04-14T00:14:17.744Z,4.05
2023-04-14T00:16:46.394Z,3.60
2023-04-14T00:19:13.180Z,3.22
2023-04-14T00:21:39.964Z,3.20
2023-04-14T00:24:06.664Z,3.10
2023-04-14T00:26:33.284Z,3.10
2023-04-14T00:29:00.239Z,3.00
2023-04-14T00:31:27.095Z,3.08
2023-04-14T00:33:53.730Z,2.28
2023-04-14T00:36:20.338Z,2.70
2023-04-14T00:38:46.974Z,2.28
2023-04-14T00:41:13.674Z,2.00
2023-04-14T00:43:40.344Z,2.63
2023-04-14T00:46:07.203Z,2.40
2023-04-14T00:48:34.357Z,1.90
2023-04-14T00:51:02.146Z,2.22
2023-04-14T00:53:28.925Z,2.15
2023-04-14T00:55:55.767Z,2.38
2023-04-14T00:58:22.372Z,2.70
2023-04-14T01:00:53.961Z,2.30
2023-04-14T01:03:21.152Z,2.78
2023-04-14T01:05:48.006Z,2.08
2023-04-14T01:08:14.781Z,2.00
2023-04-14T01:10:49.869Z,2.58
2023-04-14T01:13:27.450Z,2.03
2023-04-14T01:15:59.626Z,2.38
2023-04-14T01:18:35.372Z,2.50
2023-04-14T01:21:13.409Z,3.22
2023-04-14T01:23:48.229Z,5.28
2023-04-14T01:26:29.610Z,6.13
2023-04-14T01:29:17.736Z,5.85
2023-04-14T01:31:50.627Z,6.03
2023-04-14T01:34:29.061Z,5.25
2023-04-14T01:37:02.374Z,5.10
2023-04-14T01:39:35.725Z,4.63
2023-04-14T01:42:06.683Z,4.22
2023-04-14T01:44:34.890Z,4.00
2023-04-14T01:47:05.907Z,4.75
2023-04-14T01:49:35.634Z,4.88
2023-04-14T01:52:06.710Z,4.63
2023-04-14T01:54:34.736Z,4.40
2023-04-14T01:57:03.988Z,4.50
2023-04-14T01:59:32.481Z,4.05
2023-04-14T02:02:01.766Z,4.67
2023-04-14T02:04:30.837Z,4.78
2023-04-14T02:07:00.406Z,4.60
2023-04-14T02:09:29.362Z,4.60
2023-04-14T02:11:58.261Z,4.63
2023-04-14T02:14:25.001Z,4.60
2023-04-14T02:16:53.696Z,4.88
2023-04-14T02:19:21.784Z,4.18
2023-04-14T02:21:50.894Z,4.47
2023-04-14T02:24:18.024Z,3.42
2023-04-14T02:26:53.953Z,3.40
2023-04-14T02:29:22.473Z,3.55
2023-04-14T02:32:04.731Z,3.20
2023-04-14T02:34:38.456Z,3.25
2023-04-14T02:37:20.751Z,3.97
2023-04-14T02:39:53.668Z,4.50
2023-04-14T02:42:25.983Z,3.10
2023-04-14T02:45:05.434Z,3.35
2023-04-14T02:47:34.377Z,3.33
2023-04-14T02:50:03.259Z,3.60
2023-04-14T02:52:32.955Z,3.47
2023-04-14T02:55:01.587Z,3.63
2023-04-14T02:57:30.039Z,5.18
2023-04-14T02:59:58.837Z,5.97
2023-04-14T03:02:26.497Z,5.25
2023-04-14T03:04:53.546Z,5.80
2023-04-14T03:07:21.821Z,5.07
2023-04-14T03:09:51.953Z,4.70
2023-04-14T03:12:20.317Z,5.20
2023-04-14T03:14:48.482Z,5.03
2023-04-14T03:17:17.586Z,4.38
2023-04-14T03:19:48.609Z,4.88
2023-04-14T03:22:20.652Z,4.80
2023-04-14T03:24:47.803Z,4.10
2023-04-14T03:27:25.945Z,4.65
2023-04-14T03:29:55.790Z,4.38
2023-04-14T03:32:28.137Z,4.13
2023-04-14T03:34:58.046Z,3.80
2023-04-14T03:37:26.346Z,3.80
2023-04-14T03:39:53.991Z,3.75
2023-04-14T03:42:22.395Z,3.88
2023-04-14T03:44:53.289Z,3.38
2023-04-14T03:47:23.611Z,3.28
2023-04-14T03:49:56.983Z,3.10
2023-04-14T03:52:24.977Z,3.40
2023-04-14T03:54:54.619Z,3.42
2023-04-14T03:57:23.365Z,3.50
2023-04-14T03:59:52.351Z,3.38
2023-04-14T04:02:20.984Z,3.38
2023-04-14T04:04:49.109Z,3.30
2023-04-14T04:07:17.583Z,3.42
2023-04-14T04:09:47.383Z,3.58
2023-04-14T04:12:18.464Z,3.60
2023-04-14T04:14:45.287Z,3.30
2023-04-14T04:17:14.820Z,3.70
2023-04-14T04:19:43.598Z,3.75
2023-04-14T04:22:11.893Z,3.55
2023-04-14T04:24:40.769Z,4.05
2023-04-14T04:27:20.421Z,4.97
2023-04-14T04:29:54.017Z,4.90
2023-04-14T04:32:21.218Z,5.15
2023-04-14T04:34:52.674Z,4.50
2023-04-14T04:37:20.000Z,4.95
2023-04-14T04:39:48.591Z,4.78
2023-04-14T04:42:15.313Z,4.83
2023-04-14T04:44:42.045Z,5.28
2023-04-14T04:47:09.544Z,7.55
2023-04-14T04:49:36.312Z,5.20
2023-04-14T04:52:02.959Z,6.60
2023-04-14T04:54:29.661Z,5.80
2023-04-14T04:56:57.711Z,6.90
2023-04-14T04:59:25.011Z,7.18
2023-04-14T05:01:52.210Z,6.90
2023-04-14T05:04:19.170Z,7.75
2023-04-14T05:06:45.873Z,8.45
2023-04-14T05:09:12.552Z,7.15
2023-04-14T05:11:39.220Z,7.60
2023-04-14T05:14:06.474Z,8.75
2023-04-14T05:16:33.588Z,7.28
2023-04-14T05:19:00.449Z,6.57
2023-04-14T05:21:27.352Z,7.00
2023-04-14T05:23:54.004Z,6.10
2023-04-14T05:26:44.501Z,6.38
2023-04-14T05:29:08.947Z,5.93
2023-04-14T05:31:35.644Z,6.13
2023-04-14T05:34:02.737Z,5.88
2023-04-14T05:36:29.527Z,6.28
2023-04-14T05:38:56.350Z,6.70
2023-04-14T05:41:23.635Z,7.07
2023-04-14T05:43:50.835Z,6.03
2023-04-14T05:46:17.744Z,6.45
2023-04-14T05:48:44.506Z,6.13
2023-04-14T05:51:11.403Z,7.18
2023-04-14T05:53:38.126Z,5.50
2023-04-14T05:56:05.274Z,5.78
2023-04-14T05:58:31.916Z,5.97
2023-04-14T06:00:58.577Z,5.93
2023-04-14T06:03:25.542Z,6.85
2023-04-14T06:05:53.144Z,7.00
2023-04-14T06:08:20.695Z,9.02
2023-04-14T06:10:47.421Z,8.57
2023-04-14T06:13:15.201Z,9.63
2023-04-14T06:15:41.816Z,10.52
2023-04-14T06:18:08.489Z,10.55
2023-04-14T06:20:35.608Z,10.57
2023-04-14T06:23:02.254Z,12.25
2023-04-14T06:25:28.918Z,11.52
2023-04-14T06:27:55.691Z,12.13
2023-04-14T06:30:22.634Z,10.15
2023-04-14T06:32:54.236Z,12.02
2023-04-14T06:35:32.376Z,10.65
2023-04-14T06:37:59.930Z,12.15
2023-04-14T06:40:26.578Z,11.90
2023-04-14T06:42:53.179Z,11.98
2023-04-14T06:45:19.876Z,11.48
2023-04-14T06:47:46.546Z,10.05
2023-04-14T06:50:13.343Z,10.18
2023-04-14T06:52:40.071Z,9.85
2023-04-14T06:55:07.151Z,10.75
2023-04-14T06:57:33.718Z,11.75
2023-04-14T07:00:00.397Z,12.40
2023-04-14T07:02:28.858Z,12.75
2023-04-14T07:04:56.041Z,13.37
2023-04-14T07:07:24.378Z,13.68
2023-04-14T07:09:51.617Z,14.60
2023-04-14T07:12:18.475Z,18.35
2023-04-14T07:14:51.953Z,19.92
2023-04-14T07:17:19.493Z,21.30
2023-04-14T07:19:46.505Z,18.05
2023-04-14T07:22:13.210Z,21.15
2023-04-14T07:24:40.084Z,16.67
2023-04-14T07:27:15.133Z,17.58
2023-04-14T07:29:42.604Z,16.67
2023-04-14T07:32:09.242Z,16.08
2023-04-14T07:34:35.965Z,15.27
2023-04-14T07:37:02.687Z,14.32
2023-04-14T07:39:29.511Z,13.60
2023-04-14T07:41:58.759Z,18.77
2023-04-14T07:44:25.831Z,17.25
2023-04-14T07:46:52.462Z,14.02
2023-04-14T07:49:19.153Z,16.42
2023-04-14T07:51:45.739Z,15.57
2023-04-14T07:54:12.432Z,17.58
2023-04-14T07:56:39.059Z,15.40
2023-04-14T07:59:05.884Z,18.42
2023-04-14T08:01:32.498Z,14.23
2023-04-14T08:03:59.294Z,14.98
2023-04-14T08:06:28.163Z,16.08
2023-04-14T08:08:54.825Z,21.60
2023-04-14T08:11:21.551Z,15.48
2023-04-14T08:13:49.942Z,14.68
2023-04-14T08:16:17.104Z,15.27
2023-04-14T08:18:44.006Z,14.40
2023-04-14T08:21:10.857Z,16.92
2023-04-14T08:23:37.726Z,19.60
2023-04-14T08:26:05.150Z,18.75
2023-04-14T08:28:31.835Z,16.08
2023-04-14T08:30:58.592Z,19.45
2023-04-14T08:33:25.500Z,15.25
2023-04-14T08:35:59.434Z,16.05
2023-04-14T08:38:27.884Z,13.43
2023-04-14T08:40:56.503Z,15.23
2023-04-14T08:43:23.499Z,13.50
2023-04-14T08:45:53.951Z,15.13
2023-04-14T08:48:21.598Z,12.38
2023-04-14T08:51:10.283Z,11.65
2023-04-14T08:53:45.759Z,13.10
2023-04-14T08:56:16.349Z,13.70
2023-04-14T08:58:43.716Z,12.57
2023-04-14T09:01:11.407Z,10.65
2023-04-14T09:03:38.542Z,10.57
2023-04-14T09:06:06.594Z,11.32
2023-04-14T09:08:34.616Z,12.27
2023-04-14T09:11:02.564Z,13.02
2023-04-14T09:13:30.100Z,11.50
2023-04-14T09:15:57.457Z,10.52
2023-04-14T09:18:28.862Z,11.13
2023-04-14T09:21:37.173Z,11.13
2023-04-14T09:23:46.293Z,9.55
2023-04-14T09:26:13.609Z,9.52
2023-04-14T09:28:41.354Z,11.52
2023-04-14T09:31:08.711Z,10.77
2023-04-14T09:36:06.462Z,9.32
2023-04-14T09:38:36.521Z,8.63
2023-04-14T09:41:06.164Z,8.60
2023-04-14T09:43:33.068Z,8.43
2023-04-14T09:46:08.597Z,8.25
2023-04-14T09:48:37.592Z,8.10
2023-04-14T09:51:10.016Z,7.93
2023-04-14T09:53:38.566Z,8.20
2023-04-14T09:56:07.471Z,7.50
2023-04-14T09:58:42.167Z,7.82
2023-04-14T10:01:13.119Z,8.15
2023-04-14T10:03:41.961Z,7.68
2023-04-14T10:06:10.795Z,7.53
2023-04-14T10:08:39.099Z,8.05
2023-04-14T10:11:19.154Z,6.68
2023-04-14T10:13:51.546Z,6.95
2023-04-14T10:16:18.430Z,7.50
2023-04-14T10:18:45.800Z,7.05
2023-04-14T10:21:14.157Z,9.35
2023-04-14T10:23:41.524Z,7.40
2023-04-14T10:26:13.197Z,7.18
2023-04-14T10:28:43.304Z,7.32
2023-04-14T10:31:20.339Z,7.88
2023-04-14T10:33:47.326Z,6.75
2023-04-14T10:36:24.588Z,7.72
2023-04-14T10:39:02.718Z,7.38
2023-04-14T10:41:48.912Z,7.17
2023-04-14T10:44:32.846Z,7.07
2023-04-14T10:47:05.209Z,7.32
2023-04-14T10:49:34.930Z,6.43
2023-04-14T10:55:02.874Z,5.28
2023-04-14T10:57:30.325Z,4.93
2023-04-14T11:00:00.693Z,4.68
2023-04-14T11:02:32.323Z,7.30
2023-04-14T11:05:11.553Z,4.85
2023-04-14T11:07:44.820Z,5.65
2023-04-14T11:10:32.144Z,4.53
2023-04-14T11:13:08.426Z,3.95
2023-04-14T11:15:49.134Z,4.95
2023-04-14T11:18:33.244Z,4.07
2023-04-14T11:21:13.037Z,3.58
2023-04-14T11:23:40.937Z,3.80
2023-04-14T11:26:09.929Z,4.43
2023-04-14T11:28:38.568Z,3.90
2023-04-14T11:31:08.481Z,3.80
2023-04-14T11:33:37.523Z,3.65
2023-04-14T11:36:09.484Z,2.85
2023-04-14T11:38:43.039Z,3.75
2023-04-14T11:41:10.027Z,3.72
2023-04-14T11:43:46.321Z,3.00
2023-04-14T11:46:13.219Z,3.00
2023-04-14T11:48:39.889Z,3.53
2023-04-14T11:51:06.737Z,3.08
2023-04-14T11:53:34.639Z,2.50
2023-04-14T11:56:01.451Z,2.80
2023-04-14T11:58:28.970Z,3.10
2023-04-14T12:00:57.765Z,2.60
2023-04-14T12:03:29.651Z,2.77
2023-04-14T12:06:00.672Z,3.17
2023-04-14T12:08:30.270Z,2.15
2023-04-14T12:10:57.838Z,2.25
2023-04-14T12:13:25.113Z,2.60
2023-04-14T12:15:52.935Z,2.67
2023-04-14T12:20:56.478Z,2.45
2023-04-14T12:23:23.766Z,2.63
2023-04-14T12:25:50.796Z,3.03
2023-04-14T12:28:28.289Z,2.75
2023-04-14T12:31:01.524Z,2.70
2023-04-14T12:33:29.699Z,6.45
2023-04-14T12:36:06.780Z,3.35
2023-04-14T12:38:34.315Z,3.40
2023-04-14T12:41:01.476Z,2.60
2023-04-14T12:43:40.614Z,2.67
2023-04-14T12:46:08.091Z,6.68
2023-04-14T12:48:48.569Z,5.53
2023-04-14T12:51:17.557Z,3.83
2023-04-14T12:53:46.520Z,2.50
2023-04-14T12:56:15.994Z,2.47
2023-04-14T12:58:46.631Z,2.45
2023-04-14T13:01:14.746Z,2.60
2023-04-14T13:03:46.120Z,2.80
2023-04-14T13:06:18.133Z,3.17
2023-04-14T13:08:47.260Z,2.85
2023-04-14T13:11:14.778Z,3.10
2023-04-14T13:13:41.749Z,3.20
2023-04-14T13:16:15.305Z,3.03
2023-04-14T13:18:43.914Z,2.80
2023-04-14T13:21:10.719Z,3.20
2023-04-14T13:23:37.309Z,3.10
2023-04-14T13:26:04.342Z,2.90
2023-04-14T13:28:31.584Z,2.65
2023-04-14T13:30:58.609Z,2.70
2023-04-14T13:33:26.610Z,2.67
2023-04-14T13:35:55.641Z,2.53
2023-04-14T13:38:22.606Z,2.67
2023-04-14T13:40:49.340Z,2.58
2023-04-14T13:43:17.900Z,2.55
2023-04-14T13:45:44.926Z,2.50
2023-04-14T13:48:11.622Z,3.15
2023-04-14T13:50:38.293Z,2.70
2023-04-14T13:53:05.622Z,2.90
2023-04-14T13:55:32.573Z,3.08
2023-04-14T13:57:59.160Z,3.33
2023-04-14T14:00:26.388Z,2.75
2023-04-14T14:02:53.135Z,3.38
2023-04-14T14:05:19.925Z,3.05
2023-04-14T14:07:46.774Z,3.13
2023-04-14T14:10:13.413Z,3.28
2023-04-14T14:12:40.066Z,2.90
2023-04-14T14:15:07.344Z,3.10
2023-04-14T14:17:34.016Z,3.30
2023-04-14T14:20:00.874Z,3.50
2023-04-14T14:22:27.563Z,3.70
2023-04-14T14:24:58.637Z,4.25
2023-04-14T14:27:31.793Z,4.15
2023-04-14T14:29:58.457Z,5.65
2023-04-14T14:32:25.180Z,9.48
2023-04-14T14:34:51.858Z,5.05
2023-04-14T14:37:19.592Z,3.90
2023-04-14T14:39:46.287Z,4.03
2023-04-14T14:42:12.893Z,4.45
2023-04-14T14:44:39.554Z,4.43
2023-04-14T14:47:06.598Z,5.63
2023-04-14T14:49:33.416Z,4.60
2023-04-14T14:52:02.565Z,4.55
2023-04-14T14:54:29.112Z,5.30
2023-04-14T14:56:56.557Z,4.82
2023-04-14T14:59:23.176Z,4.43
2023-04-14T15:01:50.006Z,4.60
2023-04-14T15:04:17.231Z,4.88
2023-04-14T15:06:44.031Z,5.45
2023-04-14T15:09:11.360Z,6.05
2023-04-14T15:11:37.971Z,6.35
2023-04-14T15:14:04.672Z,5.85
2023-04-14T15:16:31.457Z,5.13
2023-04-14T15:18:58.113Z,4.95
2023-04-14T15:21:24.836Z,4.93
2023-04-14T15:23:51.543Z,4.85
2023-04-14T15:26:18.579Z,4.72
2023-04-14T15:28:45.739Z,5.05
2023-04-14T15:31:12.400Z,6.00
2023-04-14T15:33:39.079Z,4.65
2023-04-14T15:36:06.090Z,4.45
2023-04-14T15:38:32.737Z,4.38
2023-04-14T15:40:59.806Z,4.35
2023-04-14T15:43:27.851Z,4.13
2023-04-14T15:45:54.663Z,5.43
2023-04-14T15:48:21.457Z,5.78
2023-04-14T15:50:48.080Z,5.07
2023-04-14T15:53:14.750Z,6.28
2023-04-14T15:55:41.415Z,4.50
2023-04-14T15:58:08.293Z,4.88
2023-04-14T16:00:34.945Z,4.15
2023-04-14T16:03:02.798Z,4.80
2023-04-14T16:05:29.682Z,4.43
2023-04-14T16:07:56.368Z,6.28
2023-04-14T16:10:23.361Z,5.70
2023-04-14T16:12:50.556Z,7.20
2023-04-14T16:15:17.480Z,8.90
2023-04-14T16:17:44.699Z,6.03
2023-04-14T16:20:12.680Z,4.90
2023-04-14T16:22:39.625Z,4.32
2023-04-14T16:25:07.424Z,4.50
2023-04-14T16:27:34.724Z,9.32
2023-04-14T16:30:02.516Z,6.03
2023-04-14T16:32:30.662Z,4.63
2023-04-14T16:34:57.306Z,4.50
2023-04-14T16:37:26.030Z,4.47
2023-04-14T16:39:56.250Z,4.25
2023-04-14T16:42:24.616Z,4.28
2023-04-14T16:44:54.867Z,4.90
2023-04-14T16:47:22.602Z,4.55
2023-04-14T16:49:53.079Z,5.25
2023-04-14T16:52:20.204Z,5.00
2023-04-14T16:54:46.756Z,4.20
2023-04-14T16:57:13.772Z,3.75
2023-04-14T16:59:40.628Z,3.97
2023-04-14T17:02:08.244Z,3.80
2023-04-14T17:04:35.292Z,3.47
2023-04-14T17:07:02.179Z,3.83
2023-04-14T17:09:29.106Z,4.07
2023-04-14T17:11:57.038Z,3.65
2023-04-14T17:14:23.701Z,3.90
2023-04-14T17:16:50.344Z,4.30
2023-04-14T17:19:17.136Z,3.35
2023-04-14T17:21:47.010Z,3.33
2023-04-14T17:24:14.656Z,3.53
2023-04-14T17:26:41.324Z,3.20
2023-04-14T17:29:07.905Z,3.25
2023-04-14T17:31:34.799Z,3.20
2023-04-14T17:34:02.066Z,3.00
2023-04-14T17:36:28.888Z,3.00
2023-04-14T17:38:56.138Z,3.30
2023-04-14T17:41:22.715Z,3.45
2023-04-14T17:43:49.418Z,3.45
2023-04-14T17:46:17.609Z,3.45
2023-04-14T17:48:44.978Z,3.92
2023-04-14T17:51:11.626Z,3.60
2023-04-14T17:53:38.915Z,4.38
2023-04-14T17:56:07.487Z,4.75
2023-04-14T17:58:34.234Z,4.67
2023-04-14T18:01:01.078Z,4.30
2023-04-14T18:03:28.542Z,4.80
2023-04-14T18:05:55.488Z,5.10
2023-04-14T18:08:22.182Z,6.93
2023-04-14T18:10:48.775Z,6.10
2023-04-14T18:13:15.601Z,6.72
2023-04-14T18:15:42.338Z,6.90
2023-04-14T18:18:09.206Z,5.18
2023-04-14T18:20:36.408Z,6.88
2023-04-14T18:23:03.206Z,6.40
2023-04-14T18:28:03.179Z,7.05
2023-04-14T18:30:30.373Z,8.35
2023-04-14T18:32:57.131Z,7.90
2023-04-14T18:35:25.113Z,8.00
2023-04-14T18:37:51.825Z,8.80
2023-04-14T18:40:18.611Z,10.30
2023-04-14T18:42:45.229Z,10.73
2023-04-14T18:45:12.438Z,11.52
2023-04-14T18:47:39.152Z,10.45
2023-04-14T18:50:06.440Z,10.20
2023-04-14T18:52:33.100Z,9.05
2023-04-14T18:54:59.744Z,9.27
2023-04-14T18:57:26.846Z,14.82
2023-04-14T18:59:53.541Z,11.57
2023-04-14T19:02:20.820Z,10.50
2023-04-14T19:04:47.512Z,13.38
2023-04-14T19:07:14.172Z,13.40
2023-04-14T19:09:40.796Z,13.90
2023-04-14T19:12:15.581Z,10.48
2023-04-14T19:14:51.957Z,11.90
2023-04-14T19:17:18.603Z,12.23
2023-04-14T19:19:45.223Z,13.35
2023-04-14T19:22:11.863Z,11.00
2023-04-14T19:24:39.053Z,10.18
2023-04-14T19:27:08.631Z,10.13
2023-04-14T19:29:35.902Z,9.52
2023-04-14T19:32:04.104Z,10.80
2023-04-14T19:34:30.891Z,11.77
2023-04-14T19:36:57.644Z,8.18
2023-04-14T19:39:24.280Z,8.10
2023-04-14T19:41:51.295Z,10.05
2023-04-14T19:44:17.921Z,8.57
2023-04-14T19:46:46.360Z,9.35
2023-04-14T19:49:13.512Z,9.20
2023-04-14T19:51:40.361Z,7.93
2023-04-14T19:54:07.430Z,7.10
2023-04-14T19:56:34.920Z,7.85
2023-04-14T19:59:01.905Z,9.57
2023-04-14T20:01:28.813Z,9.23
2023-04-14T20:04:05.578Z,9.18
2023-04-14T20:06:39.486Z,7.45
2023-04-14T20:09:06.552Z,8.05
2023-04-14T20:11:33.189Z,8.63
2023-04-14T20:13:59.825Z,6.22
2023-04-14T20:16:26.709Z,8.90
2023-04-14T20:18:53.439Z,8.00
2023-04-14T20:21:20.252Z,7.38
2023-04-14T20:23:47.057Z,7.65
2023-04-14T20:26:15.342Z,7.50
2023-04-14T20:28:42.896Z,7.65
2023-04-14T20:31:10.354Z,6.95
2023-04-14T20:33:37.064Z,7.13
2023-04-14T20:36:03.858Z,7.68
2023-04-14T20:38:30.595Z,8.23
2023-04-14T20:40:57.269Z,7.93
2023-04-14T20:43:31.587Z,7.05
2023-04-14T20:45:58.263Z,7.68
2023-04-14T20:48:25.498Z,8.60
2023-04-14T20:50:52.079Z,11.45
2023-04-14T20:53:21.150Z,12.60
2023-04-14T20:55:47.935Z,13.95
2023-04-14T20:58:14.981Z,14.20
2023-04-14T21:00:41.574Z,14.98
2023-04-14T21:03:09.849Z,13.95
2023-04-14T21:05:36.697Z,11.52
2023-04-14T21:08:03.934Z,11.70
2023-04-14T21:10:30.557Z,9.95
2023-04-14T21:15:03.853Z,10.30
2023-04-14T21:15:55.390Z,10.68
2023-04-14T21:18:23.081Z,11.40
2023-04-14T21:20:49.778Z,11.57
2023-04-14T21:23:16.820Z,12.07
2023-04-14T21:25:43.522Z,11.90
2023-04-14T21:28:10.496Z,9.98
2023-04-14T21:30:37.755Z,8.52
2023-04-14T21:33:07.379Z,9.65
2023-04-14T21:35:35.044Z,9.70
2023-04-14T21:38:02.592Z,9.43
2023-04-14T21:40:29.666Z,8.30
2023-04-14T21:42:56.650Z,9.95
2023-04-14T21:45:23.471Z,9.27
2023-04-14T21:47:50.204Z,9.10
2023-04-14T21:50:17.389Z,9.50
2023-04-14T21:52:43.989Z,9.27
2023-04-14T21:55:10.723Z,9.65
2023-04-14T21:57:45.765Z,10.23
2023-04-14T22:00:17.759Z,12.05
2023-04-14T22:02:45.337Z,9.77
2023-04-14T22:05:12.624Z,10.18
2023-04-14T22:07:39.872Z,12.23
2023-04-14T22:10:07.109Z,8.52
2023-04-14T22:12:37.780Z,12.73
2023-04-14T22:15:04.889Z,10.80
2023-04-14T22:17:32.772Z,10.15
2023-04-14T22:19:59.414Z,10.52
2023-04-14T22:22:26.198Z,9.77
2023-04-14T22:24:54.845Z,8.57
2023-04-14T22:27:21.568Z,8.13
2023-04-14T22:29:48.185Z,9.30
2023-04-14T22:32:16.256Z,9.02
2023-04-14T22:34:42.949Z,8.60
2023-04-14T22:37:09.645Z,10.23
2023-04-14T22:39:36.420Z,7.57
2023-04-14T22:42:03.042Z,7.72
2023-04-14T22:44:29.701Z,9.30
2023-04-14T22:46:56.665Z,8.07
2023-04-14T22:49:23.353Z,11.48
2023-04-14T22:51:49.920Z,10.13
2023-04-14T22:54:16.623Z,9.38
2023-04-14T22:56:43.442Z,8.80
2023-04-14T22:59:10.091Z,8.68
2023-04-14T23:01:36.967Z,7.55
2023-04-14T23:04:03.664Z,7.57
2023-04-14T23:06:30.332Z,7.53
2023-04-14T23:08:57.174Z,8.75
2023-04-14T23:11:23.791Z,7.13
2023-04-14T23:13:50.969Z,6.75
2023-04-14T23:16:20.046Z,6.85
2023-04-14T23:18:52.049Z,9.07
2023-04-14T23:21:22.194Z,7.63
2023-04-14T23:23:49.850Z,8.82
2023-04-14T23:26:17.400Z,8.27
2023-04-14T23:28:44.049Z,7.55
2023-04-14T23:31:10.991Z,8.98
2023-04-14T23:33:37.748Z,8.18
2023-04-14T23:36:04.584Z,10.13
2023-04-14T23:38:31.566Z,8.93
2023-04-14T23:40:59.160Z,7.68
2023-04-14T23:43:29.017Z,9.15
2023-04-14T23:45:56.050Z,8.45
2023-04-14T23:48:22.811Z,7.65
2023-04-14T23:51:00.640Z,8.55
2023-04-14T23:53:36.197Z,7.97
2023-04-14T23:56:04.183Z,7.68
2023-04-14T23:58:31.520Z,7.78
